Time;durP1;ratioP1;P1;durP2;ratioP2;P2;SDS_P1;SDS_P2;PMS_P1;PMS_P2;Temp;Humidity;BMP_temperature;BMP_pressure;BME280_temperature;BME280_humidity;BME280_pressure;Samples;Min_cycle;Max_cycle;Signal;HPM_P1;HPM_P2
2021/07/20 00:00:18;;;;;;;20.83;12.32;;;;;;;15.68;95.42;100578.59;5015190;28;20329;-69
2021/07/20 00:02:49;;;;;;;22.30;12.55;;;;;;;15.66;94.84;100572.50;5015532;28;20411;-70
2021/07/20 00:05:23;;;;;;;20.75;11.93;;;;;;;15.58;94.96;100566.84;5046851;28;20046;-70
2021/07/20 00:07:51;;;;;;;20.45;12.77;;;;;;;15.59;95.64;100577.47;5014560;28;20077;-70
2021/07/20 00:10:24;;;;;;;20.90;11.98;;;;;;;15.55;95.76;100583.19;5015264;28;20132;-70
2021/07/20 00:12:51;;;;;;;19.95;12.40;;;;;;;15.54;95.40;100574.28;5015316;28;20050;-69
2021/07/20 00:15:19;;;;;;;20.08;12.88;;;;;;;15.48;95.74;100580.97;5015011;28;20046;-69
2021/07/20 00:17:49;;;;;;;17.33;12.27;;;;;;;15.47;96.03;100581.06;5015363;28;20116;-70
2021/07/20 00:20:17;;;;;;;20.23;12.68;;;;;;;15.44;95.75;100578.63;5014928;28;20046;-69
2021/07/20 00:22:44;;;;;;;16.00;11.82;;;;;;;15.39;95.25;100588.88;5046800;28;20077;-69
2021/07/20 00:25:11;;;;;;;18.30;12.77;;;;;;;15.37;95.90;100593.50;5015176;28;20103;-70
2021/07/20 00:27:38;;;;;;;17.10;12.48;;;;;;;15.31;95.24;100574.16;5015103;28;20458;-69
2021/07/20 00:30:06;;;;;;;19.15;12.38;;;;;;;15.25;95.31;100582.69;5014921;28;20424;-70
2021/07/20 00:32:33;;;;;;;16.02;11.93;;;;;;;15.16;95.80;100576.16;5014914;28;20061;-69
2021/07/20 00:35:00;;;;;;;19.67;11.85;;;;;;;15.20;95.41;100583.03;5015443;28;20061;-69
2021/07/20 00:37:27;;;;;;;19.27;11.85;;;;;;;15.16;96.50;100588.75;5015337;28;20494;-69
2021/07/20 00:39:53;;;;;;;19.95;12.52;;;;;;;15.13;97.09;100586.28;5014758;28;20512;-69
2021/07/20 00:42:21;;;;;;;17.83;11.88;;;;;;;15.11;97.02;100583.72;5015112;28;20053;-69
2021/07/20 00:44:47;;;;;;;20.75;12.43;;;;;;;15.10;96.61;100582.00;5017277;28;20054;-69
2021/07/20 00:47:14;;;;;;;17.15;12.38;;;;;;;15.07;96.65;100582.22;5050353;28;20049;-69
2021/07/20 00:49:41;;;;;;;20.17;13.00;;;;;;;15.01;97.06;100590.72;5017899;28;20070;-69
2021/07/20 00:52:08;;;;;;;21.08;11.93;;;;;;;14.98;97.53;100583.75;5018416;28;20054;-70
2021/07/20 00:54:36;;;;;;;20.33;13.00;;;;;;;14.96;97.06;100588.38;5018305;28;20054;-69
2021/07/20 00:57:03;;;;;;;19.55;12.73;;;;;;;14.96;96.71;100580.31;5018270;28;20111;-69
2021/07/20 00:59:31;;;;;;;21.02;12.60;;;;;;;14.94;97.61;100580.41;5018353;28;20100;-69
2021/07/20 01:01:57;;;;;;;17.70;11.50;;;;;;;14.92;nan;100590.44;5018086;28;20109;-70
2021/07/20 01:04:24;;;;;;;18.77;12.40;;;;;;;14.89;96.87;100579.91;5017963;28;20065;-70
2021/07/20 01:06:52;;;;;;;17.98;11.65;;;;;;;14.85;97.39;100575.72;5017901;28;20100;-69
2021/07/20 01:09:20;;;;;;;19.58;12.45;;;;;;;14.79;nan;100582.41;5017825;28;20096;-69
2021/07/20 01:11:47;;;;;;;21.50;12.85;;;;;;;14.78;97.03;100577.16;5018304;28;20064;-69
2021/07/20 01:14:15;;;;;;;16.85;12.30;;;;;;;14.62;97.47;100562.09;5018057;28;20104;-69
2021/07/20 01:16:43;;;;;;;17.17;12.85;;;;;;;14.72;98.72;100583.78;5018009;28;20077;-69
2021/07/20 01:19:14;;;;;;;20.90;12.68;;;;;;;14.67;97.78;100577.88;5018056;28;20060;-70
2021/07/20 01:21:42;;;;;;;21.52;12.93;;;;;;;14.69;96.53;100577.75;5017663;28;20054;-70
2021/07/20 01:24:13;;;;;;;18.73;12.85;;;;;;;14.67;98.25;100580.56;5017702;28;20436;-69
2021/07/20 01:26:40;;;;;;;19.27;12.05;;;;;;;14.66;97.32;100589.59;5017524;28;20103;-69
2021/07/20 01:29:10;;;;;;;15.05;11.18;;;;;;;14.58;97.59;100581.22;5016511;28;20058;-69
2021/07/20 01:31:41;;;;;;;18.73;11.63;;;;;;;14.49;98.68;100572.00;5017754;28;20045;-69
2021/07/20 01:34:11;;;;;;;16.23;11.23;;;;;;;14.49;98.03;100583.59;5017659;28;20050;-70
2021/07/20 01:36:39;;;;;;;21.77;12.73;;;;;;;14.43;98.06;100589.41;5017152;28;20053;-69
2021/07/20 01:39:09;;;;;;;17.40;11.77;;;;;;;14.48;98.43;100594.44;5049165;28;20462;-68
2021/07/20 01:41:38;;;;;;;19.25;11.85;;;;;;;14.38;97.93;100584.34;5017852;28;20124;-68
2021/07/20 01:44:12;;;;;;;16.80;11.55;;;;;;;14.40;98.31;100590.47;5017342;28;20085;-69
2021/07/20 01:46:40;;;;;;;21.25;11.82;;;;;;;14.41;97.74;100588.66;5049419;28;20321;-69
2021/07/20 01:49:11;;;;;;;18.55;12.10;;;;;;;14.32;97.55;100592.00;5049261;28;20054;-68
2021/07/20 01:51:38;;;;;;;;;;;;;;;14.26;97.84;100598.63;5017504;28;20053;-69
2021/07/20 01:54:06;;;;;;;16.98;11.57;;;;;;;14.34;99.61;100593.56;5017097;28;19975;-69
2021/07/20 01:56:33;;;;;;;18.25;12.25;;;;;;;14.32;97.16;100592.84;5016158;28;20053;-69
2021/07/20 01:59:00;;;;;;;22.35;14.15;;;;;;;14.17;96.65;100594.75;5017196;28;20111;-69
2021/07/20 02:01:31;;;;;;;19.83;13.18;;;;;;;14.15;97.93;100594.00;5016861;28;20084;-69
2021/07/20 02:04:19;;;;;;;22.58;13.13;;;;;;;14.18;97.60;100601.88;5017006;28;20137;-69
2021/07/20 02:09:37;;;;;;;18.55;12.95;;;;;;;14.15;97.40;100596.69;5017053;28;20081;-69
2021/07/20 02:12:15;;;;;;;20.83;13.30;;;;;;;14.15;97.05;100599.38;5017033;28;20049;-69
2021/07/20 02:14:45;;;;;;;22.75;13.35;;;;;;;14.09;97.20;100597.13;5016677;28;20482;-69
2021/07/20 02:17:13;;;;;;;19.08;12.60;;;;;;;14.06;96.91;100602.72;5015788;28;20104;-69
2021/07/20 02:19:52;;;;;;;21.55;13.90;;;;;;;14.05;97.03;100598.31;5016575;28;20141;-69
2021/07/20 02:22:21;;;;;;;19.88;13.68;;;;;;;14.06;97.02;100602.72;4977837;28;20055;-69
2021/07/20 02:24:51;;;;;;;20.73;13.25;;;;;;;14.02;97.59;100590.47;4977550;28;20429;-69
2021/07/20 02:27:20;;;;;;;19.98;13.25;;;;;;;13.94;97.95;100594.53;4977561;28;20101;-69
2021/07/20 02:29:48;;;;;;;22.08;13.60;;;;;;;13.84;97.63;100583.56;4977675;28;20098;-69
2021/07/20 02:32:16;;;;;;;22.05;13.40;;;;;;;13.85;98.68;100590.63;4977291;28;20062;-68
2021/07/20 02:34:43;;;;;;;17.90;13.10;;;;;;;13.85;97.00;100584.44;4977661;28;20101;-69
2021/07/20 02:37:11;;;;;;;23.33;14.05;;;;;;;13.81;98.15;100590.97;5008559;28;20408;-69
2021/07/20 02:39:40;;;;;;;18.33;12.57;;;;;;;13.81;96.75;100588.28;4977384;28;20055;-69
2021/07/20 02:42:09;;;;;;;22.02;13.02;;;;;;;13.74;98.33;100582.47;4977374;28;20140;-69
2021/07/20 02:44:38;;;;;;;19.13;12.82;;;;;;;13.75;97.51;100584.19;4976120;28;20051;-69
2021/07/20 02:47:05;;;;;;;17.88;12.23;;;;;;;13.76;98.52;100585.91;4977295;28;20050;-70
2021/07/20 02:49:33;;;;;;;21.85;12.80;;;;;;;13.76;97.93;100593.09;4976922;28;20058;-69
2021/07/20 02:52:00;;;;;;;21.17;12.60;;;;;;;13.74;97.10;100587.84;4975997;28;20046;-70
2021/07/20 02:54:28;;;;;;;20.48;12.88;;;;;;;13.75;97.68;100586.88;4977227;28;20103;-70
2021/07/20 02:56:55;;;;;;;16.95;11.70;;;;;;;13.67;96.98;100583.88;4977194;28;20129;-70
2021/07/20 02:59:25;;;;;;;19.58;12.00;;;;;;;13.60;97.88;100583.41;4977204;28;20055;-70
2021/07/20 03:01:55;;;;;;;22.27;11.95;;;;;;;13.55;98.85;100572.13;4977048;28;20059;-69
2021/07/20 03:04:23;;;;;;;20.23;12.15;;;;;;;13.48;98.77;100581.53;5008321;28;20054;-69
2021/07/20 03:06:54;;;;;;;17.55;11.77;;;;;;;13.43;98.34;100582.69;4976343;28;20074;-69
2021/07/20 03:09:24;;;;;;;21.15;11.75;;;;;;;13.34;99.43;100564.50;4977140;28;20450;-70
2021/07/20 03:11:58;;;;;;;20.02;11.55;;;;;;;13.43;99.44;100582.69;4976739;28;20058;-69
2021/07/20 03:14:27;;;;;;;21.35;11.20;;;;;;;13.46;98.75;100578.09;4976969;28;20051;-69
2021/07/20 03:16:58;;;;;;;21.13;12.10;;;;;;;13.48;nan;100570.81;4976715;28;20046;-70
2021/07/20 03:19:28;;;;;;;21.13;11.35;;;;;;;13.41;97.69;100579.22;4976671;28;20356;-69
2021/07/20 03:22:01;;;;;;;19.65;11.50;;;;;;;13.36;98.35;100573.34;5010149;28;20049;-69
2021/07/20 03:24:29;;;;;;;21.40;11.52;;;;;;;13.32;98.82;100577.16;5015819;28;20148;-70
2021/07/20 03:26:57;;;;;;;21.70;12.77;;;;;;;13.31;98.74;100580.81;5015542;28;20050;-70
2021/07/20 03:29:25;;;;;;;23.25;13.13;;;;;;;13.28;99.61;100581.00;5015545;28;20053;-69
2021/07/20 03:31:53;;;;;;;21.35;12.50;;;;;;;13.32;99.30;100582.53;5015736;28;20112;-69
2021/07/20 03:34:21;;;;;;;20.27;12.45;;;;;;;13.25;99.82;100575.84;5015724;28;20046;-69
2021/07/20 03:36:49;;;;;;;20.73;12.27;;;;;;;13.25;99.35;100579.38;5015610;28;20116;-69
2021/07/20 03:39:17;;;;;;;22.17;12.85;;;;;;;13.20;98.67;100568.13;5015577;28;20057;-68
2021/07/20 03:41:45;;;;;;;18.67;12.00;;;;;;;13.29;98.31;100566.66;5014421;28;20103;-70
2021/07/20 03:44:12;;;;;;;17.27;12.20;;;;;;;13.31;97.69;100576.28;5015662;28;20081;-69
2021/07/20 03:46:41;;;;;;;21.10;12.80;;;;;;;13.20;97.67;100570.81;5015598;28;20076;-69
2021/07/20 03:49:08;;;;;;;23.00;12.23;;;;;;;13.21;97.71;100574.31;5015196;28;20054;-69
2021/07/20 03:51:36;;;;;;;21.90;13.10;;;;;;;13.17;98.09;100562.94;5015550;28;20050;-69
2021/07/20 03:54:03;;;;;;;22.80;13.45;;;;;;;13.15;98.72;100571.09;5014352;28;20104;-69
2021/07/20 03:56:30;;;;;;;25.30;13.32;;;;;;;13.15;99.39;100564.88;5013749;28;20046;-68
2021/07/20 03:58:58;;;;;;;25.02;13.50;;;;;;;13.08;99.28;100567.09;5015153;28;20050;-69
2021/07/20 04:01:29;;;;;;;21.90;13.27;;;;;;;13.07;97.83;100565.38;5015617;28;20053;-69
2021/07/20 04:03:58;;;;;;;22.05;13.35;;;;;;;13.08;98.97;100572.44;5015321;28;20060;-69
2021/07/20 04:06:26;;;;;;;26.55;13.73;;;;;;;13.07;98.93;100581.44;5015139;28;20046;-69
2021/07/20 04:08:54;;;;;;;21.05;12.45;;;;;;;13.06;98.95;100585.09;5015140;28;20432;-69
2021/07/20 04:11:22;;;;;;;21.50;13.27;;;;;;;13.11;99.00;100584.78;5015430;28;20120;-68
2021/07/20 04:13:52;;;;;;;22.90;13.80;;;;;;;13.10;98.97;100583.94;5046938;28;20054;-67
2021/07/20 04:16:23;;;;;;;24.00;13.82;;;;;;;13.06;99.64;100585.09;5015458;28;20053;-69
2021/07/20 04:18:50;;;;;;;22.70;13.20;;;;;;;13.02;100.00;100580.91;5015887;28;20077;-68
2021/07/20 04:21:18;;;;;;;22.52;13.75;;;;;;;13.00;100.00;100580.13;5050944;28;20112;-68
2021/07/20 04:23:45;;;;;;;24.13;13.98;;;;;;;12.98;99.11;100577.56;5018764;28;20081;-68
2021/07/20 04:26:14;;;;;;;26.48;13.85;;;;;;;13.04;100.00;100579.81;5019041;28;20050;-68
2021/07/20 04:28:40;;;;;;;23.85;14.95;;;;;;;13.07;99.11;100576.09;5050869;28;20108;-68
2021/07/20 04:31:08;;;;;;;24.55;14.02;;;;;;;13.08;98.82;100580.47;5019036;28;20076;-68
2021/07/20 04:33:36;;;;;;;24.55;13.63;;;;;;;13.10;97.67;100572.34;5051002;28;20089;-69
2021/07/20 04:36:04;;;;;;;26.40;14.43;;;;;;;13.15;97.69;100581.81;5019886;28;20060;-68
2021/07/20 04:38:35;;;;;;;25.88;14.52;;;;;;;13.14;98.58;100569.38;5018975;28;20061;-68
2021/07/20 04:41:02;;;;;;;29.52;14.68;;;;;;;13.17;98.55;100569.19;5019141;28;20053;-69
2021/07/20 04:43:29;;;;;;;24.75;13.77;;;;;;;13.22;98.55;100576.91;5018248;28;20058;-69
2021/07/20 04:45:57;;;;;;;24.75;15.25;;;;;;;13.23;98.82;100580.47;5019396;28;20347;-70
2021/07/20 04:48:24;;;;;;;23.10;13.75;;;;;;;13.22;98.99;100576.91;5019850;28;20046;-69
2021/07/20 04:50:53;;;;;;;26.55;14.70;;;;;;;13.21;99.52;100569.84;5018444;28;20057;-69
2021/07/20 04:53:20;;;;;;;23.42;14.20;;;;;;;13.35;98.40;100585.00;5018231;28;20069;-69
2021/07/20 04:55:51;;;;;;;24.98;13.98;;;;;;;13.32;97.98;100563.75;5018069;28;20435;-68
2021/07/20 04:58:17;;;;;;;22.03;13.23;;;;;;;13.42;97.71;100578.25;5018592;28;20076;-70
2021/07/20 05:00:48;;;;;;;22.60;13.88;;;;;;;13.47;97.50;100585.19;5018269;28;20291;-69
2021/07/20 05:03:22;;;;;;;21.98;12.70;;;;;;;13.48;98.33;100593.13;5017020;28;20056;-69
2021/07/20 05:05:52;;;;;;;24.00;14.18;;;;;;;13.54;98.21;100586.50;5018376;28;20050;-70
2021/07/20 05:08:20;;;;;;;26.20;13.63;;;;;;;13.56;97.35;100588.13;5016824;28;20181;-70
2021/07/20 05:10:55;;;;;;;22.08;13.85;;;;;;;13.60;97.57;100583.41;5017863;28;20049;-69
2021/07/20 05:13:24;;;;;;;21.77;13.75;;;;;;;13.65;97.52;100600.06;5017802;28;20050;-70
2021/07/20 05:15:56;;;;;;;23.70;13.40;;;;;;;13.66;97.91;100585.69;5017435;28;20090;-70
2021/07/20 05:18:23;;;;;;;22.77;13.63;;;;;;;13.67;98.50;100587.38;5017561;28;20527;-70
2021/07/20 05:20:57;;;;;;;27.88;14.10;;;;;;;13.75;97.88;100591.38;5017594;28;20435;-68
2021/07/20 05:23:25;;;;;;;21.73;13.50;;;;;;;13.80;97.27;100587.44;5017156;28;20096;-73
2021/07/20 05:25:55;;;;;;;40.22;17.48;;;;;;;13.87;96.84;100598.59;5048928;28;20092;-70
2021/07/20 05:28:27;;;;;;;34.85;15.32;;;;;;;13.92;94.79;100590.22;5017191;28;20327;-72
2021/07/20 05:30:56;;;;;;;33.85;15.48;;;;;;;13.94;96.54;100594.53;5015812;28;20443;-70
2021/07/20 05:33:24;;;;;;;28.90;14.40;;;;;;;13.95;98.62;100598.94;5016497;28;20439;-70
2021/07/20 05:35:59;;;;;;;30.25;15.18;;;;;;;13.96;99.38;100603.31;5048820;28;20053;-71
2021/07/20 05:38:27;;;;;;;30.63;14.55;;;;;;;13.93;97.14;100603.53;5011287;28;20092;-72
2021/07/20 05:40:57;;;;;;;23.63;14.80;;;;;;;13.96;98.12;100607.84;5016726;28;20103;-72
2021/07/20 05:43:29;;;;;;;23.50;14.20;;;;;;;14.05;97.65;100614.41;5043198;28;20049;-70
2021/07/20 05:46:01;;;;;;;25.85;14.45;;;;;;;14.10;100.00;100614.94;5016815;28;20049;-69
2021/07/20 05:48:29;;;;;;;24.23;14.13;;;;;;;14.10;99.67;100617.63;5012023;28;20335;-73
2021/07/20 05:51:01;;;;;;;24.40;14.23;;;;;;;14.15;96.48;100625.38;5010461;28;20096;-72
2021/07/20 05:53:29;;;;;;;20.38;13.38;;;;;;;14.18;100.00;100622.47;5015435;28;20057;-71
2021/07/20 05:55:59;;;;;;;22.48;13.90;;;;;;;14.19;97.51;100627.75;5016743;28;20049;-71
2021/07/20 05:58:26;;;;;;;23.17;13.52;;;;;;;14.19;95.89;100625.06;5016430;28;20057;-78
2021/07/20 06:00:54;;;;;;;25.35;14.65;;;;;;;14.25;95.41;100626.44;5016394;28;20112;-70
2021/07/20 06:03:25;;;;;;;22.35;14.13;;;;;;;14.25;95.36;100621.94;5015964;28;20042;-71
2021/07/20 06:05:53;;;;;;;;;;;;;;;14.37;94.63;100627.41;5015180;28;20057;-72
2021/07/20 06:08:22;;;;;;;27.45;14.40;;;;;;;14.35;92.37;100634.72;5015955;28;19922;-68
2021/07/20 06:10:55;;;;;;;30.15;15.07;;;;;;;14.38;93.91;100637.19;5047485;28;20053;-68
2021/07/20 06:13:26;;;;;;;27.27;16.17;;;;;;;14.39;92.43;100639.78;5014641;28;20053;-68
2021/07/20 06:15:54;;;;;;;27.38;15.75;;;;;;;14.49;92.91;100637.31;5013880;28;20064;-68
2021/07/20 06:18:21;;;;;;;27.98;15.50;;;;;;;14.52;92.33;100639.78;5013874;28;20321;-68
2021/07/20 06:20:56;;;;;;;25.25;14.55;;;;;;;14.51;90.78;100631.84;5015289;28;20359;-69
2021/07/20 06:23:24;;;;;;;31.20;15.88;;;;;;;14.54;92.36;100639.66;5015128;28;20104;-68
2021/07/20 06:25:52;;;;;;;29.00;15.55;;;;;;;14.58;93.96;100646.56;5015861;28;20080;-69
2021/07/20 06:28:22;;;;;;;23.95;14.52;;;;;;;14.61;93.04;100634.72;5016146;28;20485;-69
2021/07/20 06:30:49;;;;;;;26.87;15.40;;;;;;;14.70;90.75;100644.81;5015287;28;20100;-67
2021/07/20 06:33:18;;;;;;;36.97;15.88;;;;;;;14.70;90.22;100647.50;5047470;28;20058;-67
2021/07/20 06:35:46;;;;;;;33.53;16.05;;;;;;;14.85;86.78;100644.72;5014288;28;20080;-67
2021/07/20 06:38:21;;;;;;;30.05;17.20;;;;;;;14.89;88.16;100640.84;5015891;28;20054;-66
2021/07/20 06:40:52;;;;;;;29.50;16.90;;;;;;;14.84;91.74;100651.06;5047418;28;20085;-68
2021/07/20 06:43:21;;;;;;;35.40;17.60;;;;;;;14.87;91.83;100651.72;5015429;28;20057;-67
2021/07/20 06:45:48;;;;;;;32.42;17.42;;;;;;;14.85;89.27;100650.97;5002975;28;20054;-67
2021/07/20 06:48:19;;;;;;;29.58;16.77;;;;;;;14.95;87.94;100653.84;4991688;28;20356;-67
2021/07/20 06:50:47;;;;;;;32.58;17.52;;;;;;;14.96;91.87;100652.00;4996239;28;20351;-68
2021/07/20 06:53:15;;;;;;;32.28;15.55;;;;;;;15.00;91.30;100649.03;5007623;28;20053;-66
2021/07/20 06:55:49;;;;;;;30.77;16.52;;;;;;;15.01;91.01;100633.72;5015921;28;20053;-67
2021/07/20 06:58:21;;;;;;;29.27;16.63;;;;;;;15.14;91.66;100655.22;5011955;28;20105;-68
2021/07/20 07:00:49;;;;;;;29.25;17.35;;;;;;;15.16;93.10;100661.34;5027090;28;20061;-68
2021/07/20 07:03:19;;;;;;;33.80;17.83;;;;;;;15.23;86.54;100651.84;4995363;28;20133;-68
2021/07/20 07:05:47;;;;;;;33.33;16.42;;;;;;;15.25;85.70;100660.66;5008281;28;20363;-68
2021/07/20 07:08:16;;;;;;;29.85;16.35;;;;;;;15.36;84.84;100656.34;5015684;28;20049;-68
2021/07/20 07:10:43;;;;;;;27.90;16.60;;;;;;;15.51;84.15;100655.19;5015685;28;20329;-67
2021/07/20 07:13:11;;;;;;;31.85;16.55;;;;;;;15.46;89.95;100652.00;5016006;28;20053;-69
2021/07/20 07:15:39;;;;;;;31.05;16.92;;;;;;;15.44;88.61;100656.63;5015647;28;20109;-68
2021/07/20 07:18:06;;;;;;;26.95;16.45;;;;;;;15.50;88.22;100663.38;5015985;28;20057;-68
2021/07/20 07:20:34;;;;;;;29.05;16.58;;;;;;;15.63;84.40;100663.34;5011572;28;20054;-68
2021/07/20 07:23:03;;;;;;;35.92;17.23;;;;;;;15.64;86.04;100659.69;5011370;28;20054;-68
2021/07/20 07:25:30;;;;;;;34.65;17.45;;;;;;;15.75;87.69;100662.44;4995511;28;20050;-68
2021/07/20 07:27:58;;;;;;;27.35;15.77;;;;;;;15.75;87.41;100662.44;4994793;28;20060;-68
2021/07/20 07:30:26;;;;;;;26.85;16.00;;;;;;;15.82;85.01;100665.50;4995371;28;20197;-67
2021/07/20 07:32:54;;;;;;;33.28;17.35;;;;;;;15.99;82.07;100665.13;5000827;28;20050;-69
2021/07/20 07:35:21;;;;;;;34.70;16.27;;;;;;;16.07;83.80;100669.91;5014221;28;20585;-69
2021/07/20 07:37:50;;;;;;;26.95;15.57;;;;;;;16.06;82.05;100665.50;4995687;28;20046;-69
2021/07/20 07:40:18;;;;;;;23.10;14.25;;;;;;;15.98;82.35;100665.25;4995913;28;20058;-69
2021/07/20 07:42:45;;;;;;;22.85;13.98;;;;;;;15.99;83.81;100672.34;4995789;28;20061;-69
2021/07/20 07:45:13;;;;;;;25.10;14.25;;;;;;;16.03;80.44;100673.84;4996232;28;20058;-67
2021/07/20 07:47:42;;;;;;;24.58;13.77;;;;;;;16.05;78.32;100669.19;4994516;28;20042;-67
2021/07/20 07:50:09;;;;;;;24.10;13.60;;;;;;;16.13;80.82;100672.13;5008933;28;20062;-69
2021/07/20 07:52:36;;;;;;;30.00;15.00;;;;;;;16.13;79.36;100674.84;5015504;28;20053;-68
2021/07/20 07:55:04;;;;;;;22.88;12.98;;;;;;;16.19;78.17;100676.22;5018306;28;20050;-69
2021/07/20 07:57:31;;;;;;;22.08;12.80;;;;;;;16.29;78.30;100671.81;5018861;28;20112;-67
2021/07/20 07:59:59;;;;;;;22.35;14.52;;;;;;;16.37;78.76;100668.56;5003167;28;20061;-67
2021/07/20 08:02:30;;;;;;;21.58;13.68;;;;;;;16.39;78.43;100671.97;4997234;28;20054;-67
2021/07/20 08:05:00;;;;;;;24.45;13.15;;;;;;;16.41;79.48;100664.63;5011159;28;20057;-68
2021/07/20 08:07:28;;;;;;;19.35;12.60;;;;;;;16.49;78.74;100671.25;5019057;28;20046;-68
2021/07/20 08:09:56;;;;;;;22.30;12.13;;;;;;;16.53;76.86;100672.72;5018400;28;20063;-67
2021/07/20 08:12:24;;;;;;;20.80;12.23;;;;;;;16.60;77.21;100678.50;5006588;28;20051;-68
2021/07/20 08:14:51;;;;;;;19.20;12.50;;;;;;;16.65;78.98;100674.47;4982244;28;20062;-68
2021/07/20 08:17:18;;;;;;;20.92;11.82;;;;;;;16.51;75.05;100655.84;5009275;28;20046;-67
2021/07/20 08:19:46;;;;;;;20.75;11.40;;;;;;;16.74;75.55;100669.31;5018640;28;20061;-69
2021/07/20 08:22:17;;;;;;;22.20;12.05;;;;;;;16.89;75.19;100665.41;5008245;28;20345;-67
2021/07/20 08:25:16;;;;;;;;;;;;;;;16.93;73.61;100671.41;4999485;28;20054;-69
2021/07/20 08:27:53;;;;;;;21.02;12.48;;;;;;;17.04;71.36;100662.47;5027057;28;19957;-66
2021/07/20 08:30:21;;;;;;;22.73;11.88;;;;;;;17.03;76.21;100664.34;5000409;28;20097;-66
2021/07/20 08:32:55;;;;;;;22.42;12.80;;;;;;;17.09;75.19;100668.38;5018684;28;20473;-68
2021/07/20 08:35:30;;;;;;;19.70;11.57;;;;;;;17.09;75.37;100665.69;5018750;28;20058;-68
2021/07/20 08:38:02;;;;;;;21.17;12.10;;;;;;;17.12;74.52;100662.75;5018458;28;20133;-67
2021/07/20 08:40:55;;;;;;;19.17;12.32;;;;;;;17.20;74.66;100667.50;5018907;28;20108;-68
2021/07/20 08:43:32;;;;;;;15.80;10.63;;;;;;;17.25;73.37;100657.19;5019075;28;20053;-68
2021/07/20 08:45:59;;;;;;;18.02;11.23;;;;;;;17.29;72.05;100674.00;5016776;28;20431;-69
2021/07/20 08:48:39;;;;;;;22.25;10.98;;;;;;;17.27;73.81;100668.72;4998599;28;20058;-67
2021/07/20 08:51:11;;;;;;;21.42;11.57;;;;;;;17.31;73.07;100674.72;4998125;28;20061;-69
2021/07/20 08:53:51;;;;;;;16.45;10.45;;;;;;;17.31;71.83;100672.00;4999006;28;20104;-68
2021/07/20 08:56:20;;;;;;;17.48;10.23;;;;;;;17.38;74.74;100673.25;5049052;28;20061;-70
2021/07/20 08:59:06;;;;;;;20.50;11.73;;;;;;;17.46;72.90;100676.19;5008189;28;20050;-73
2021/07/20 09:01:42;;;;;;;22.60;11.55;;;;;;;17.52;73.06;100669.41;4996116;28;21120;-68
2021/07/20 09:04:21;;;;;;;20.98;10.85;;;;;;;17.56;71.07;100665.47;4997551;28;20408;-68
2021/07/20 09:06:59;;;;;;;18.73;10.88;;;;;;;17.77;72.86;100668.22;4998511;28;20428;-72
2021/07/20 09:09:32;;;;;;;22.17;11.10;;;;;;;17.93;71.26;100661.56;4998913;28;20042;-67
2021/07/20 09:12:25;;;;;;;17.23;10.63;;;;;;;18.00;71.17;100670.84;4998560;28;20590;-69
2021/07/20 09:15:03;;;;;;;20.13;11.45;;;;;;;18.10;68.97;100662.84;4998564;28;20062;-69
2021/07/20 09:17:39;;;;;;;21.92;10.82;;;;;;;18.13;69.21;100669.81;4998250;28;20046;-67
2021/07/20 09:20:08;;;;;;;19.48;10.65;;;;;;;18.10;68.52;100667.38;4999943;28;20117;-69
2021/07/20 09:22:44;;;;;;;19.67;10.70;;;;;;;18.11;67.47;100669.97;5002809;28;20051;-67
2021/07/20 09:25:21;;;;;;;18.65;11.60;;;;;;;18.42;65.37;100666.47;4997608;28;20054;-69
2021/07/20 09:27:56;;;;;;;19.98;11.32;;;;;;;18.48;66.81;100665.94;4997236;28;20046;-67
2021/07/20 09:30:27;;;;;;;20.83;11.60;;;;;;;18.52;71.54;100661.97;4997430;28;20104;-70
2021/07/20 09:33:24;;;;;;;17.95;11.30;;;;;;;18.57;71.49;100658.88;4998247;28;20057;-67
2021/07/20 09:36:02;;;;;;;17.58;10.88;;;;;;;18.65;68.84;100667.19;4998201;28;20097;-67
2021/07/20 09:38:28;;;;;;;19.13;11.23;;;;;;;18.66;68.51;100662.63;4997788;28;20050;-68
2021/07/20 09:41:17;;;;;;;14.07;9.73;;;;;;;18.84;67.37;100671.81;4997793;28;20428;-69
2021/07/20 09:44:01;;;;;;;15.48;9.98;;;;;;;18.89;67.66;100667.88;4997740;28;20050;-67
2021/07/20 09:46:39;;;;;;;17.58;11.00;;;;;;;18.91;68.57;100673.97;4997319;28;20116;-66
2021/07/20 09:49:23;;;;;;;16.20;11.10;;;;;;;19.05;66.74;100668.22;4997339;28;20428;-67
2021/07/20 09:52:28;;;;;;;17.90;11.32;;;;;;;19.10;62.41;100667.81;4997849;28;20046;-66
2021/07/20 09:55:36;;;;;;;20.10;11.23;;;;;;;19.25;62.66;100663.75;4997816;28;20069;-68
2021/07/20 09:58:40;;;;;;;20.08;10.18;;;;;;;19.46;65.22;100662.81;4997116;28;20134;-66
2021/07/20 10:01:26;;;;;;;15.02;9.65;;;;;;;19.57;65.86;100666.38;4996714;28;20726;-69
2021/07/20 10:04:08;;;;;;;16.33;9.40;;;;;;;19.51;65.59;100667.78;5009350;28;20042;-68
2021/07/20 10:06:58;;;;;;;15.77;10.65;;;;;;;19.57;66.48;100671.78;5013428;28;20103;-67
2021/07/20 10:09:33;;;;;;;14.98;10.27;;;;;;;19.57;61.25;100667.22;5015077;28;20081;-70
2021/07/20 10:12:03;;;;;;;15.48;9.98;;;;;;;19.65;64.41;100663.81;5000568;28;20445;-68
2021/07/20 10:14:56;;;;;;;18.52;10.63;;;;;;;19.72;65.34;100656.00;5012479;28;20055;-70
2021/07/20 10:17:31;;;;;;;17.50;9.82;;;;;;;19.64;65.91;100665.69;5015811;28;20112;-69
2021/07/20 10:19:58;;;;;;;19.52;10.77;;;;;;;19.77;64.34;100653.72;5017265;28;20136;-70
2021/07/20 10:22:36;;;;;;;17.15;10.68;;;;;;;19.93;66.11;100654.00;5045868;28;20069;-69
2021/07/20 10:25:09;;;;;;;15.23;10.25;;;;;;;20.00;63.64;100645.31;5012186;28;20049;-67
2021/07/20 10:27:46;;;;;;;17.13;11.02;;;;;;;20.10;64.85;100648.88;5004201;28;20058;-69
2021/07/20 10:30:14;;;;;;;17.48;9.98;;;;;;;20.07;63.54;100649.16;5006548;28;20049;-68
2021/07/20 10:33:17;;;;;;;15.75;11.38;;;;;;;20.23;59.83;100662.13;5016170;28;20046;-68
2021/07/20 10:35:54;;;;;;;18.65;11.10;;;;;;;20.10;61.01;100648.88;5016192;28;20058;-68
2021/07/20 10:38:30;;;;;;;23.98;11.52;;;;;;;20.14;63.03;100644.00;5016383;28;20049;-68
2021/07/20 10:40:59;;;;;;;18.33;11.43;;;;;;;20.33;61.53;100656.69;5015158;28;20054;-69
2021/07/20 10:43:37;;;;;;;19.35;11.13;;;;;;;20.39;62.08;100644.41;5016222;28;20549;-69
2021/07/20 10:46:06;;;;;;;17.25;10.68;;;;;;;20.60;61.91;100646.94;5016448;28;20359;-69
2021/07/20 10:48:39;;;;;;;18.63;10.68;;;;;;;20.79;62.47;100639.69;5016068;28;20046;-67
2021/07/20 10:51:12;;;;;;;18.58;12.27;;;;;;;20.63;63.56;100647.50;5015003;28;20108;-67
2021/07/20 10:53:51;;;;;;;17.85;10.63;;;;;;;20.74;64.38;100646.44;5016043;28;20053;-68
2021/07/20 10:56:39;;;;;;;19.30;11.18;;;;;;;20.73;63.90;100649.31;5016098;28;20288;-67
2021/07/20 10:59:18;;;;;;;19.65;10.57;;;;;;;20.59;58.30;100648.78;4989284;28;20050;-69
2021/07/20 11:01:56;;;;;;;16.45;11.05;;;;;;;20.65;61.22;100649.19;4995462;28;20108;-68
2021/07/20 11:04:49;;;;;;;17.40;10.82;;;;;;;20.81;61.63;100646.69;4995961;28;20065;-70
2021/07/20 11:07:27;;;;;;;22.48;11.75;;;;;;;20.98;59.93;100645.06;4996268;28;20100;-69
2021/07/20 11:09:58;;;;;;;15.07;10.50;;;;;;;21.15;60.43;100646.13;4996188;28;20050;-69
2021/07/20 11:12:28;;;;;;;18.35;10.30;;;;;;;21.31;59.94;100647.34;4996535;28;20054;-66
2021/07/20 11:14:57;;;;;;;17.83;10.57;;;;;;;21.53;59.33;100635.16;4996401;28;20436;-68
2021/07/20 11:17:25;;;;;;;21.65;10.85;;;;;;;21.57;60.33;100642.00;4996419;28;20352;-68
2021/07/20 11:19:55;;;;;;;14.98;9.57;;;;;;;21.55;60.59;100637.75;4996060;28;20128;-68
2021/07/20 11:22:24;;;;;;;13.50;9.30;;;;;;;21.60;56.70;100637.28;5001995;28;20507;-69
2021/07/20 11:24:52;;;;;;;15.25;10.38;;;;;;;21.56;57.87;100637.59;4995494;28;20100;-69
2021/07/20 11:27:21;;;;;;;19.33;11.55;;;;;;;21.52;61.13;100641.63;4993912;28;20054;-69
2021/07/20 11:29:49;;;;;;;19.00;11.02;;;;;;;21.63;58.80;100628.84;4994885;28;20046;-70